Current Conditions

Updated: 27-Mar-2015 5:26pm  
Summary / Temperature Wind Rain






Feels like: 89°F

1-hour difference
0.5°F 0.5°F warmer than last hour.

24-hour difference
3.2°F3.2°F warmer than yesterday at this time.

  Today Yesterday
High: 92.6°F
4:54pm
89.1°F
5:01pm
Low: 53.9°F
7:20am
50.9°F
6:08am
Wind from SSE SSE
0.8
Gust:  0.0 mph
0 Beaufort - Calm

Today: 7.0 - 1:40pm
Month: 10.4 mph - Mar 5
Rain Today: 0.00 in
Current Rate (/hr): 0.00 in
Max Rate (/hr):
Rain Yesterday: 0.00 in
Storm Rain: 0.00 in
This Month: 0.13 in
Season Total: 3.63 in
Last Rain Event: 24 days ago
Humidity / Barometer Sun / Moon
Humidity: 25  
Dew Point: 50.9°F Increased 0.3°F in the last hour.
Barometer: 29.952 inHg  
Baro Trend: Steady
Sunrise: 6:48am
Sunset: 7:13pm
Moonrise: 1:33pm
Moonset: 2:47am
Sky Conditions UV Index
Sky: Clear
Visibility: 10 miles
Clouds: None
Current: 2.0  Low 
Friday: 7.4  High 
Saturday: 6.7  High 
Air Quality Fire Danger
Ozone Good
PM 2.5 Good
Current: 80  High 

Local Alerts Local Forecast
Local NWS Alerts
Today

Sunny

High 91
Tonight

Clear

Low 49
Sat

Mostly
Sunny
High 84
Sat night

Mostly
Clear
Low 50
Sun

Mostly
Sunny
High 83
Sun night

Mostly
Clear
Low 51
Mon

Mostly
Sunny
High 87

Local Radar Local Satellite Neighborhood Cam Sky Cam
Local Radar Local Satellite Neighborhood Cam Sky Cam


Nearby METAR Reports

KPTV - Porterville, California, USA
Distance from station: SSW 4mi, 7km
Updated: Fri, 27-Mar-2015 5:15pm PDT
Clear
Clear
 Wind from NNW
Wind: NNW 8 mph , 13 km/h
Temperature: 90°F , 32°C
Dew Point: 43°F , 6°C
Humidity: 20%
Barometer: 30.01 inHg , 1016.3 hPa
Clouds: Clear
Visibility: 10 miles , 16 km
2015/03/28 00:15 KPTV 280015Z AUTO 33007KT 10SM CLR 32/06 A3001 RMK AO1
KVIS - Visalia, California, USA
Distance from station: NW 27mi, 43km
Updated: Fri, 27-Mar-2015 5:15pm PDT
Clear
Clear
 Wind from W
Wind: W 7 mph , 11 km/h
Temperature: 88°F , 31°C
Dew Point: 50°F , 10°C
Humidity: 27%
Barometer: 30.00 inHg , 1015.9 hPa
Clouds: Clear
Visibility: 10 miles , 16 km
2015/03/28 00:15 KVIS 280015Z AUTO 27006KT 10SM CLR 31/10 A3000 RMK AO1

Metar display script from Saratoga-Weather.org



Visitor Map